createdAt,value
2022-09-17T00:01:29.788Z,100.00
2022-09-17T00:04:00.465Z,100.00
2022-09-17T00:06:28.030Z,100.00
2022-09-17T00:08:55.514Z,100.00
2022-09-17T00:11:29.380Z,100.00
2022-09-17T00:13:59.193Z,100.00
2022-09-17T00:16:37.269Z,100.00
2022-09-17T00:19:06.416Z,100.00
2022-09-17T00:21:33.576Z,100.00
2022-09-17T00:24:03.988Z,100.00
2022-09-17T00:26:32.374Z,100.00
2022-09-17T00:29:00.164Z,100.00
2022-09-17T00:31:28.562Z,100.00
2022-09-17T00:33:56.425Z,100.00
2022-09-17T00:36:23.880Z,100.00
2022-09-17T00:38:52.532Z,100.00
2022-09-17T00:41:21.168Z,100.00
2022-09-17T00:43:51.130Z,100.00
2022-09-17T00:46:23.273Z,100.00
2022-09-17T00:48:54.323Z,100.00
2022-09-17T00:51:29.015Z,100.00
2022-09-17T00:53:56.874Z,100.00
2022-09-17T00:56:27.966Z,100.00
2022-09-17T00:58:55.901Z,100.00
2022-09-17T01:01:24.004Z,100.00
2022-09-17T01:03:51.211Z,100.00
2022-09-17T01:06:57.585Z,100.00
2022-09-17T01:09:33.458Z,100.00
2022-09-17T01:12:06.933Z,100.00
2022-09-17T01:14:37.170Z,100.00
2022-09-17T01:17:30.270Z,100.00
2022-09-17T01:20:45.566Z,100.00
2022-09-17T01:23:53.747Z,100.00
2022-09-17T01:26:33.655Z,100.00
2022-09-17T01:29:20.942Z,100.00
2022-09-17T01:31:54.419Z,100.00
2022-09-17T01:34:53.946Z,100.00
2022-09-17T01:37:56.439Z,100.00
2022-09-17T01:40:29.793Z,100.00
2022-09-17T01:42:59.758Z,100.00
2022-09-17T01:45:42.459Z,100.00
2022-09-17T01:48:17.624Z,100.00
2022-09-17T01:50:55.829Z,100.00
2022-09-17T01:53:29.104Z,100.00
2022-09-17T01:56:00.026Z,100.00
2022-09-17T01:58:32.241Z,100.00
2022-09-17T02:01:04.065Z,100.00
2022-09-17T02:03:37.409Z,100.00
2022-09-17T02:06:18.569Z,100.00
2022-09-17T02:08:51.965Z,100.00
2022-09-17T02:11:19.980Z,100.00
2022-09-17T02:13:54.577Z,100.00
2022-09-17T02:16:27.751Z,100.00
2022-09-17T02:19:02.691Z,100.00
2022-09-17T02:21:40.167Z,100.00
2022-09-17T02:24:17.907Z,100.00
2022-09-17T02:26:50.507Z,100.00
2022-09-17T02:29:27.203Z,100.00
2022-09-17T02:31:54.467Z,100.00
2022-09-17T02:34:22.482Z,100.00
2022-09-17T02:36:49.634Z,100.00
2022-09-17T02:39:17.669Z,100.00
2022-09-17T02:41:59.859Z,100.00
2022-09-17T02:44:45.719Z,100.00
2022-09-17T02:47:40.139Z,100.00
2022-09-17T02:50:22.146Z,100.00
2022-09-17T02:52:57.988Z,100.00
2022-09-17T02:55:34.440Z,100.00
2022-09-17T02:58:09.701Z,100.00
2022-09-17T03:00:37.313Z,100.00
2022-09-17T03:03:13.903Z,100.00
2022-09-17T03:05:42.994Z,100.00
2022-09-17T03:08:14.464Z,100.00
2022-09-17T03:10:41.722Z,100.00
2022-09-17T03:13:08.914Z,100.00
2022-09-17T03:15:36.319Z,100.00
2022-09-17T03:18:03.667Z,100.00
2022-09-17T03:20:30.853Z,100.00
2022-09-17T03:22:58.211Z,100.00
2022-09-17T03:25:25.363Z,100.00
2022-09-17T03:27:52.564Z,100.00
2022-09-17T03:30:20.234Z,100.00
2022-09-17T03:32:47.503Z,100.00
2022-09-17T03:35:14.689Z,100.00
2022-09-17T03:37:43.170Z,100.00
2022-09-17T03:40:10.629Z,100.00
2022-09-17T03:42:37.879Z,100.00
2022-09-17T03:45:05.757Z,100.00
2022-09-17T03:47:32.899Z,100.00
2022-09-17T03:50:00.170Z,100.00
2022-09-17T03:52:27.544Z,100.00
2022-09-17T03:54:54.730Z,100.00
2022-09-17T03:57:22.926Z,100.00
2022-09-17T03:59:50.302Z,100.00
2022-09-17T04:02:17.507Z,100.00
2022-09-17T04:04:44.891Z,100.00
2022-09-17T04:07:12.276Z,100.00
2022-09-17T04:09:39.817Z,100.00
2022-09-17T04:12:07.140Z,100.00
2022-09-17T04:14:34.580Z,100.00
2022-09-17T04:17:01.759Z,100.00
2022-09-17T04:19:28.966Z,100.00
2022-09-17T04:21:56.321Z,100.00
2022-09-17T04:24:23.496Z,100.00
2022-09-17T04:26:50.646Z,100.00
2022-09-17T04:29:18.350Z,100.00
2022-09-17T04:31:45.873Z,100.00
2022-09-17T04:34:13.163Z,100.00
2022-09-17T04:36:40.520Z,100.00
2022-09-17T04:39:08.779Z,100.00
2022-09-17T04:41:35.933Z,100.00
2022-09-17T04:44:03.279Z,100.00
2022-09-17T04:46:30.510Z,100.00
2022-09-17T04:48:57.792Z,100.00
2022-09-17T04:51:25.475Z,100.00
2022-09-17T04:53:52.712Z,100.00
2022-09-17T04:56:20.536Z,100.00
2022-09-17T04:58:47.945Z,100.00
2022-09-17T05:01:15.338Z,100.00
2022-09-17T05:03:42.597Z,100.00
2022-09-17T05:06:10.064Z,100.00
2022-09-17T05:08:37.588Z,100.00
2022-09-17T05:11:05.171Z,100.00
2022-09-17T05:13:32.601Z,100.00
2022-09-17T05:15:59.784Z,100.00
2022-09-17T05:18:26.984Z,100.00
2022-09-17T05:20:54.388Z,100.00
2022-09-17T05:23:21.922Z,100.00
2022-09-17T05:25:49.202Z,100.00
2022-09-17T05:28:16.695Z,100.00
2022-09-17T05:30:43.890Z,100.00
2022-09-17T05:33:11.071Z,100.00
2022-09-17T05:35:38.422Z,100.00
2022-09-17T05:38:07.679Z,100.00
2022-09-17T05:40:35.358Z,100.00
2022-09-17T05:43:06.270Z,100.00
2022-09-17T05:45:34.856Z,100.00
2022-09-17T05:48:03.262Z,100.00
2022-09-17T05:50:31.527Z,100.00
2022-09-17T05:53:05.694Z,86.54
2022-09-17T05:55:35.018Z,74.38
2022-09-17T05:58:12.570Z,62.97
2022-09-17T06:00:41.256Z,53.16
2022-09-17T06:03:13.011Z,55.43
2022-09-17T06:05:40.972Z,61.28
2022-09-17T06:08:09.332Z,68.31
2022-09-17T06:10:37.637Z,76.09
2022-09-17T06:13:05.144Z,82.06
2022-09-17T06:15:32.507Z,87.79
2022-09-17T06:17:59.732Z,96.83
2022-09-17T06:20:27.051Z,100.00
2022-09-17T06:22:59.387Z,100.00
2022-09-17T06:25:27.082Z,100.00
2022-09-17T06:27:54.254Z,100.00
2022-09-17T06:30:21.656Z,100.00
2022-09-17T06:32:48.980Z,100.00
2022-09-17T06:35:16.185Z,100.00
2022-09-17T06:37:43.634Z,100.00
2022-09-17T06:40:11.261Z,100.00
2022-09-17T06:42:38.562Z,100.00
2022-09-17T06:45:10.161Z,100.00
2022-09-17T06:47:39.306Z,100.00
2022-09-17T06:50:06.889Z,100.00
2022-09-17T06:52:34.325Z,100.00
2022-09-17T06:55:01.473Z,98.49
2022-09-17T06:57:28.904Z,96.04
2022-09-17T06:59:56.078Z,98.68
2022-09-17T07:02:23.260Z,87.51
2022-09-17T07:04:50.620Z,78.56
2022-09-17T07:07:17.877Z,73.55
2022-09-17T07:09:45.057Z,78.83
2022-09-17T07:12:12.622Z,84.39
2022-09-17T07:14:39.740Z,89.87
2022-09-17T07:17:07.376Z,93.81
2022-09-17T07:19:34.925Z,98.90
2022-09-17T07:22:02.149Z,100.00
2022-09-17T07:24:32.754Z,100.00
2022-09-17T07:27:01.773Z,100.00
2022-09-17T07:29:29.015Z,100.00
2022-09-17T07:31:56.430Z,89.80
2022-09-17T07:34:23.965Z,75.97
2022-09-17T07:36:51.098Z,72.67
2022-09-17T07:39:18.239Z,62.76
2022-09-17T07:41:45.628Z,53.72
2022-09-17T07:44:12.822Z,49.00
2022-09-17T07:46:40.117Z,44.15
2022-09-17T07:49:07.565Z,38.98
2022-09-17T07:51:34.686Z,40.91
2022-09-17T07:54:02.472Z,37.84
2022-09-17T07:56:30.522Z,38.79
2022-09-17T07:58:57.717Z,38.60
2022-09-17T08:01:25.822Z,38.68
2022-09-17T08:03:54.624Z,35.91
2022-09-17T08:06:26.130Z,38.61
2022-09-17T08:08:53.656Z,38.58
2022-09-17T08:11:55.210Z,36.92
2022-09-17T08:14:12.747Z,40.75
2022-09-17T08:16:40.750Z,42.02
2022-09-17T08:19:10.627Z,44.53
2022-09-17T08:21:38.136Z,48.50
2022-09-17T08:24:05.718Z,50.38
2022-09-17T08:26:32.895Z,44.07
2022-09-17T08:29:00.225Z,43.29
2022-09-17T08:31:30.300Z,45.05
2022-09-17T08:33:57.955Z,46.48
2022-09-17T08:36:26.617Z,49.66
2022-09-17T08:38:55.659Z,51.19
2022-09-17T08:41:42.489Z,54.99
2022-09-17T08:44:15.827Z,55.84
2022-09-17T08:46:47.741Z,56.73
2022-09-17T08:49:33.209Z,59.68
2022-09-17T08:52:22.344Z,50.43
2022-09-17T08:55:05.341Z,49.23
2022-09-17T08:57:59.459Z,49.13
2022-09-17T09:00:39.103Z,47.04
2022-09-17T09:03:23.876Z,44.99
2022-09-17T09:05:56.506Z,43.43
2022-09-17T09:09:08.745Z,43.00
2022-09-17T09:11:36.512Z,44.73
2022-09-17T09:14:10.206Z,44.06
2022-09-17T09:16:41.620Z,41.10
2022-09-17T09:19:27.045Z,37.53
2022-09-17T09:22:30.425Z,40.76
2022-09-17T09:25:23.279Z,45.07
2022-09-17T09:28:03.299Z,47.18
2022-09-17T09:31:12.329Z,42.99
2022-09-17T09:33:47.602Z,39.75
2022-09-17T09:36:21.702Z,38.82
2022-09-17T09:39:01.824Z,40.18
2022-09-17T09:41:29.129Z,40.97
2022-09-17T09:44:05.310Z,44.63
2022-09-17T09:47:07.335Z,46.16
2022-09-17T09:49:34.654Z,42.86
2022-09-17T09:52:07.804Z,44.45
2022-09-17T09:54:51.810Z,46.58
2022-09-17T09:57:32.992Z,51.00
2022-09-17T10:00:31.261Z,58.53
2022-09-17T10:03:16.930Z,60.49
2022-09-17T10:06:02.824Z,64.41
2022-09-17T10:08:33.064Z,69.18
2022-09-17T10:11:06.771Z,69.78
2022-09-17T10:13:36.732Z,63.44
2022-09-17T10:16:25.394Z,62.28
2022-09-17T10:19:14.309Z,55.72
2022-09-17T10:21:43.123Z,50.47
2022-09-17T10:24:27.096Z,49.62
2022-09-17T10:27:14.107Z,49.21
2022-09-17T10:29:51.124Z,46.01
2022-09-17T10:32:21.441Z,46.31
2022-09-17T10:35:04.508Z,45.57
2022-09-17T10:37:49.791Z,44.68
2022-09-17T10:40:20.154Z,46.87
2022-09-17T10:43:09.073Z,50.84
2022-09-17T10:45:39.839Z,53.47
2022-09-17T10:48:22.924Z,54.68
2022-09-17T10:50:53.100Z,52.31
2022-09-17T10:53:23.371Z,52.59
2022-09-17T10:56:02.645Z,54.86
2022-09-17T10:58:51.346Z,59.63
2022-09-17T11:01:47.430Z,64.48
2022-09-17T11:04:23.829Z,69.43
2022-09-17T11:06:56.469Z,74.00
2022-09-17T11:09:45.382Z,72.91
2022-09-17T11:12:20.420Z,79.63
2022-09-17T11:14:56.952Z,84.38
2022-09-17T11:17:39.036Z,85.54
2022-09-17T11:20:16.171Z,94.20
2022-09-17T11:23:01.980Z,95.64
2022-09-17T11:25:46.255Z,98.34
2022-09-17T11:28:41.409Z,100.00
2022-09-17T11:31:23.233Z,100.00
2022-09-17T11:34:05.335Z,100.00
2022-09-17T11:36:55.366Z,100.00
2022-09-17T11:39:45.321Z,100.00
2022-09-17T11:42:18.203Z,99.36
2022-09-17T11:44:52.962Z,97.63
2022-09-17T11:47:30.806Z,96.95
2022-09-17T11:50:07.718Z,93.07
2022-09-17T11:52:44.438Z,93.64
2022-09-17T11:55:43.733Z,96.50
2022-09-17T11:58:36.958Z,95.03
2022-09-17T12:01:11.503Z,95.55
2022-09-17T12:04:26.900Z,97.71
2022-09-17T12:07:02.593Z,94.59
2022-09-17T12:09:36.826Z,96.85
2022-09-17T12:12:26.297Z,96.72
2022-09-17T12:15:22.660Z,91.74
2022-09-17T12:18:20.651Z,91.82
2022-09-17T12:20:52.022Z,89.36
2022-09-17T12:23:31.334Z,87.87
2022-09-17T12:26:19.792Z,87.18
2022-09-17T12:28:54.591Z,87.88
2022-09-17T12:31:32.886Z,83.72
2022-09-17T12:34:42.689Z,82.37
2022-09-17T12:37:33.155Z,83.39
2022-09-17T12:40:29.683Z,84.75
2022-09-17T12:43:18.798Z,83.99
2022-09-17T12:46:15.087Z,83.81
2022-09-17T12:48:54.306Z,84.52
2022-09-17T12:51:40.036Z,85.39
2022-09-17T12:54:26.118Z,84.56
2022-09-17T12:57:05.357Z,85.89
2022-09-17T12:59:36.155Z,84.69
2022-09-17T13:02:43.886Z,85.43
2022-09-17T13:05:35.737Z,87.66
2022-09-17T13:08:30.323Z,88.47
2022-09-17T13:11:26.798Z,89.19
2022-09-17T13:13:56.937Z,89.50
2022-09-17T13:16:46.689Z,89.23
2022-09-17T13:19:39.567Z,87.41
2022-09-17T13:22:19.404Z,87.94
2022-09-17T13:24:49.114Z,90.21
2022-09-17T13:27:23.539Z,88.13
2022-09-17T13:29:53.755Z,90.26
2022-09-17T13:32:33.330Z,91.21
2022-09-17T13:35:06.832Z,91.52
2022-09-17T13:37:36.497Z,88.63
2022-09-17T13:40:04.678Z,88.20
2022-09-17T13:42:48.229Z,89.51
2022-09-17T13:45:18.081Z,86.33
2022-09-17T13:47:58.727Z,85.78
2022-09-17T13:50:32.268Z,87.80
2022-09-17T13:53:07.363Z,87.28
2022-09-17T13:55:53.274Z,88.55
2022-09-17T13:58:23.302Z,88.95
2022-09-17T14:00:58.213Z,89.12
2022-09-17T14:03:31.557Z,86.52
2022-09-17T14:06:19.591Z,85.72
2022-09-17T14:08:47.416Z,85.56
2022-09-17T14:11:24.169Z,85.73
2022-09-17T14:14:14.446Z,87.69
2022-09-17T14:16:47.790Z,87.48
2022-09-17T14:19:51.474Z,88.29
2022-09-17T14:22:29.264Z,88.72
2022-09-17T14:24:56.534Z,89.01
2022-09-17T14:27:45.525Z,88.71
2022-09-17T14:30:18.500Z,86.96
2022-09-17T14:32:54.053Z,88.90
2022-09-17T14:35:40.777Z,92.59
2022-09-17T14:38:20.933Z,94.56
2022-09-17T14:40:57.770Z,97.67
2022-09-17T14:43:54.137Z,100.00
2022-09-17T14:46:33.207Z,100.00
2022-09-17T14:49:23.024Z,100.00
2022-09-17T14:51:52.346Z,100.00
2022-09-17T14:54:29.459Z,100.00
2022-09-17T14:57:08.604Z,100.00
2022-09-17T14:59:54.901Z,100.00
2022-09-17T15:02:44.938Z,100.00
2022-09-17T15:05:28.302Z,100.00
2022-09-17T15:08:10.426Z,100.00
2022-09-17T15:10:49.047Z,100.00
2022-09-17T15:13:25.443Z,100.00
2022-09-17T15:16:01.953Z,100.00
2022-09-17T15:18:52.478Z,100.00
2022-09-17T15:21:41.232Z,100.00
2022-09-17T15:24:13.739Z,100.00
2022-09-17T15:26:43.666Z,100.00
2022-09-17T15:29:15.013Z,100.00
2022-09-17T15:31:42.534Z,100.00
2022-09-17T15:34:12.933Z,100.00
2022-09-17T15:36:40.173Z,100.00
2022-09-17T15:39:30.448Z,100.00
2022-09-17T15:41:57.971Z,100.00
2022-09-17T15:44:30.411Z,100.00
2022-09-17T15:47:36.243Z,100.00
2022-09-17T15:50:34.471Z,100.00
2022-09-17T15:53:10.713Z,100.00
2022-09-17T15:55:44.675Z,100.00
2022-09-17T15:58:36.409Z,100.00
2022-09-17T16:01:15.686Z,100.00
2022-09-17T16:03:46.380Z,100.00
2022-09-17T16:06:22.579Z,100.00
2022-09-17T16:08:57.558Z,100.00
2022-09-17T16:11:30.670Z,100.00
2022-09-17T16:13:59.938Z,100.00
2022-09-17T16:16:33.580Z,100.00
2022-09-17T16:19:01.770Z,100.00
2022-09-17T16:21:29.298Z,100.00
2022-09-17T16:23:58.206Z,100.00
2022-09-17T16:26:31.505Z,100.00
2022-09-17T16:29:05.069Z,100.00
2022-09-17T16:31:33.202Z,100.00
2022-09-17T16:34:01.035Z,100.00
2022-09-17T16:36:31.203Z,100.00
2022-09-17T16:38:59.625Z,100.00
2022-09-17T16:41:27.452Z,100.00
2022-09-17T16:43:54.665Z,100.00
2022-09-17T16:46:21.914Z,100.00
2022-09-17T16:48:52.371Z,100.00
2022-09-17T16:51:19.849Z,100.00
2022-09-17T16:53:47.146Z,100.00
2022-09-17T16:56:15.741Z,100.00
2022-09-17T16:58:43.170Z,100.00
2022-09-17T17:01:15.483Z,100.00
2022-09-17T17:03:45.578Z,100.00
2022-09-17T17:06:17.479Z,100.00
2022-09-17T17:08:45.043Z,100.00
2022-09-17T17:11:12.473Z,100.00
2022-09-17T17:13:41.520Z,100.00
2022-09-17T17:16:11.689Z,100.00
2022-09-17T17:18:39.038Z,100.00
2022-09-17T17:21:08.103Z,100.00
2022-09-17T17:23:35.696Z,100.00
2022-09-17T17:26:03.807Z,100.00
2022-09-17T17:28:32.705Z,100.00
2022-09-17T17:31:00.129Z,100.00
2022-09-17T17:33:27.369Z,100.00
2022-09-17T17:35:54.538Z,100.00
2022-09-17T17:38:21.935Z,100.00
2022-09-17T17:40:49.067Z,100.00
2022-09-17T17:43:16.648Z,100.00
2022-09-17T17:45:44.038Z,100.00
2022-09-17T17:48:11.175Z,100.00
2022-09-17T17:50:38.344Z,100.00
2022-09-17T17:53:05.739Z,100.00
2022-09-17T17:55:32.894Z,100.00
2022-09-17T17:58:01.651Z,100.00
2022-09-17T18:00:29.388Z,100.00
2022-09-17T18:02:57.070Z,100.00
2022-09-17T18:05:24.354Z,100.00
2022-09-17T18:07:51.849Z,100.00
2022-09-17T18:10:19.830Z,100.00
2022-09-17T18:12:50.687Z,100.00
2022-09-17T18:15:18.322Z,100.00
2022-09-17T18:17:48.106Z,100.00
2022-09-17T18:20:15.627Z,100.00
2022-09-17T18:22:43.026Z,100.00
2022-09-17T18:25:10.561Z,100.00
2022-09-17T18:27:37.679Z,100.00
2022-09-17T18:30:05.652Z,100.00
2022-09-17T18:32:32.950Z,100.00
2022-09-17T18:35:00.118Z,100.00
2022-09-17T18:37:29.177Z,100.00
2022-09-17T18:39:59.087Z,100.00
2022-09-17T18:42:26.738Z,100.00
2022-09-17T18:44:54.175Z,100.00
2022-09-17T18:47:21.358Z,100.00
2022-09-17T18:49:48.705Z,100.00
2022-09-17T18:52:16.274Z,100.00
2022-09-17T18:54:46.076Z,100.00
2022-09-17T18:57:13.632Z,100.00
2022-09-17T18:59:41.145Z,100.00
2022-09-17T19:02:12.103Z,100.00
2022-09-17T19:04:39.494Z,100.00
2022-09-17T19:07:07.547Z,100.00
2022-09-17T19:09:34.837Z,100.00
2022-09-17T19:12:02.503Z,100.00
2022-09-17T19:14:30.072Z,100.00
2022-09-17T19:16:57.500Z,100.00
2022-09-17T19:19:24.743Z,100.00
2022-09-17T19:21:52.298Z,100.00
2022-09-17T19:24:19.489Z,100.00
2022-09-17T19:26:50.838Z,100.00
2022-09-17T19:29:18.433Z,100.00
2022-09-17T19:31:45.751Z,100.00
2022-09-17T19:34:13.268Z,100.00
2022-09-17T19:36:40.711Z,100.00
2022-09-17T19:39:08.154Z,100.00
2022-09-17T19:41:36.683Z,100.00
2022-09-17T19:44:04.304Z,100.00
2022-09-17T19:46:32.531Z,100.00
2022-09-17T19:49:00.668Z,100.00
2022-09-17T19:51:29.769Z,100.00
2022-09-17T19:53:57.386Z,100.00
2022-09-17T19:56:27.125Z,100.00
2022-09-17T19:58:55.259Z,100.00
2022-09-17T20:01:22.740Z,100.00
2022-09-17T20:03:50.046Z,100.00
2022-09-17T20:06:20.799Z,100.00
2022-09-17T20:08:50.333Z,100.00
2022-09-17T20:11:21.782Z,100.00
2022-09-17T20:13:49.368Z,100.00
2022-09-17T20:16:20.174Z,100.00
2022-09-17T20:18:49.160Z,100.00
2022-09-17T20:21:25.677Z,100.00
2022-09-17T20:23:53.597Z,100.00
2022-09-17T20:26:21.949Z,100.00
2022-09-17T20:28:50.507Z,100.00
2022-09-17T20:31:20.592Z,100.00
2022-09-17T20:33:50.972Z,100.00
2022-09-17T20:36:20.070Z,100.00
2022-09-17T20:41:38.078Z,100.00
2022-09-17T20:44:07.102Z,100.00
2022-09-17T20:46:34.657Z,100.00
2022-09-17T20:49:02.128Z,100.00
2022-09-17T20:51:30.593Z,100.00
2022-09-17T20:53:58.275Z,100.00
2022-09-17T20:56:31.778Z,100.00
2022-09-17T20:59:08.737Z,100.00
2022-09-17T21:01:37.999Z,100.00
2022-09-17T21:04:08.155Z,100.00
2022-09-17T21:06:43.692Z,100.00
2022-09-17T21:09:15.727Z,100.00
2022-09-17T21:11:46.785Z,100.00
2022-09-17T21:14:18.765Z,100.00
2022-09-17T21:16:46.628Z,100.00
2022-09-17T21:19:16.249Z,100.00
2022-09-17T21:21:44.796Z,100.00
2022-09-17T21:24:12.461Z,100.00
2022-09-17T21:26:39.877Z,100.00
2022-09-17T21:29:08.162Z,100.00
2022-09-17T21:31:37.186Z,100.00
2022-09-17T21:34:07.110Z,100.00
2022-09-17T21:36:37.087Z,100.00
2022-09-17T21:39:16.210Z,100.00
2022-09-17T21:41:45.437Z,100.00
2022-09-17T21:44:13.470Z,100.00
2022-09-17T21:46:41.815Z,100.00
2022-09-17T21:49:09.740Z,100.00
2022-09-17T21:51:39.967Z,100.00
2022-09-17T21:54:12.372Z,100.00
2022-09-17T21:56:40.114Z,100.00
2022-09-17T21:59:10.002Z,100.00
2022-09-17T22:01:40.576Z,100.00
2022-09-17T22:04:19.884Z,100.00
2022-09-17T22:06:49.653Z,100.00
2022-09-17T22:09:23.294Z,100.00
2022-09-17T22:11:52.025Z,100.00
2022-09-17T22:14:21.557Z,100.00
2022-09-17T22:16:53.014Z,100.00
2022-09-17T22:19:22.038Z,100.00
2022-09-17T22:21:51.450Z,100.00
2022-09-17T22:24:20.442Z,100.00
2022-09-17T22:26:55.774Z,100.00
2022-09-17T22:29:24.818Z,100.00
2022-09-17T22:31:52.181Z,100.00
2022-09-17T22:34:22.956Z,100.00
2022-09-17T22:36:50.606Z,100.00
2022-09-17T22:39:23.463Z,100.00
2022-09-17T22:41:51.221Z,100.00
2022-09-17T22:44:19.692Z,100.00
2022-09-17T22:46:49.878Z,100.00
2022-09-17T22:49:18.226Z,100.00
2022-09-17T22:51:47.252Z,100.00
2022-09-17T22:54:16.774Z,100.00
2022-09-17T22:56:45.129Z,100.00
2022-09-17T22:59:12.818Z,100.00
2022-09-17T23:01:41.019Z,100.00
2022-09-17T23:04:08.280Z,100.00
2022-09-17T23:06:42.311Z,100.00
2022-09-17T23:09:12.886Z,100.00
2022-09-17T23:11:40.372Z,100.00
2022-09-17T23:14:10.295Z,100.00
2022-09-17T23:16:43.209Z,100.00
2022-09-17T23:19:12.245Z,100.00
2022-09-17T23:21:40.007Z,100.00
2022-09-17T23:24:07.921Z,100.00
2022-09-17T23:26:35.794Z,100.00
2022-09-17T23:29:05.189Z,100.00
2022-09-17T23:31:35.176Z,100.00
2022-09-17T23:34:04.102Z,100.00
2022-09-17T23:36:35.142Z,100.00
2022-09-17T23:39:03.636Z,100.00
2022-09-17T23:41:33.071Z,100.00
2022-09-17T23:44:02.588Z,100.00
2022-09-17T23:46:32.400Z,100.00
2022-09-17T23:49:00.223Z,100.00
2022-09-17T23:51:31.046Z,100.00
2022-09-17T23:53:59.174Z,100.00
2022-09-17T23:56:28.696Z,100.00
2022-09-17T23:58:59.097Z,100.00
